sensor_id;sensor_type;location;lat;lon;timestamp;pressure;altitude;pressure_sealevel;temperature
51693;BMP280;37777;53.066;21.638;2024-03-07T00:02:44;101695.88;;;0.29
51693;BMP280;37777;53.066;21.638;2024-03-07T00:09:46;101699.19;;;0.37
51693;BMP280;37777;53.066;21.638;2024-03-07T00:16:47;101684.19;;;0.19
51693;BMP280;37777;53.066;21.638;2024-03-07T00:23:49;101698.59;;;0.18
51693;BMP280;37777;53.066;21.638;2024-03-07T00:30:51;101692.47;;;0.34
51693;BMP280;37777;53.066;21.638;2024-03-07T00:37:52;101696.22;;;0.21
51693;BMP280;37777;53.066;21.638;2024-03-07T00:44:54;101693.38;;;0.23
51693;BMP280;37777;53.066;21.638;2024-03-07T00:51:57;101696.97;;;0.16
51693;BMP280;37777;53.066;21.638;2024-03-07T00:58:59;101699.84;;;0.15
51693;BMP280;37777;53.066;21.638;2024-03-07T01:06:00;101703.56;;;0.02
51693;BMP280;37777;53.066;21.638;2024-03-07T01:13:02;101699.28;;;-0.11
51693;BMP280;37777;53.066;21.638;2024-03-07T01:20:07;101695.94;;;-0.06
51693;BMP280;37777;53.066;21.638;2024-03-07T01:27:08;101687.25;;;-0.13
51693;BMP280;37777;53.066;21.638;2024-03-07T01:34:10;101685.09;;;-0.28
51693;BMP280;37777;53.066;21.638;2024-03-07T01:41:11;101678.13;;;-0.29
51693;BMP280;37777;53.066;21.638;2024-03-07T01:48:22;101680.00;;;-0.30
51693;BMP280;37777;53.066;21.638;2024-03-07T01:55:27;101680.44;;;-0.45
51693;BMP280;37777;53.066;21.638;2024-03-07T02:02:28;101691.31;;;-0.46
51693;BMP280;37777;53.066;21.638;2024-03-07T02:09:30;101687.72;;;-0.40
51693;BMP280;37777;53.066;21.638;2024-03-07T02:16:31;101690.25;;;-0.34
51693;BMP280;37777;53.066;21.638;2024-03-07T02:23:33;101684.94;;;-0.45
51693;BMP280;37777;53.066;21.638;2024-03-07T02:30:35;101686.22;;;-0.48
51693;BMP280;37777;53.066;21.638;2024-03-07T02:37:36;101690.59;;;-0.54
51693;BMP280;37777;53.066;21.638;2024-03-07T02:44:37;101689.91;;;-0.61
51693;BMP280;37777;53.066;21.638;2024-03-07T02:51:42;101689.78;;;-0.66
51693;BMP280;37777;53.066;21.638;2024-03-07T02:58:43;101687.03;;;-0.59
51693;BMP280;37777;53.066;21.638;2024-03-07T03:05:45;101694.66;;;-0.63
51693;BMP280;37777;53.066;21.638;2024-03-07T03:12:47;101702.38;;;-0.73
51693;BMP280;37777;53.066;21.638;2024-03-07T03:19:48;101700.66;;;-0.79
51693;BMP280;37777;53.066;21.638;2024-03-07T03:26:51;101711.63;;;-0.88
51693;BMP280;37777;53.066;21.638;2024-03-07T03:33:52;101709.63;;;-0.92
51693;BMP280;37777;53.066;21.638;2024-03-07T03:40:54;101714.81;;;-0.97
51693;BMP280;37777;53.066;21.638;2024-03-07T03:47:57;101709.84;;;-0.94
51693;BMP280;37777;53.066;21.638;2024-03-07T03:54:59;101714.81;;;-0.97
51693;BMP280;37777;53.066;21.638;2024-03-07T04:02:00;101715.28;;;-1.01
51693;BMP280;37777;53.066;21.638;2024-03-07T04:09:02;101713.03;;;-1.15
51693;BMP280;37777;53.066;21.638;2024-03-07T04:16:05;101714.63;;;-1.14
51693;BMP280;37777;53.066;21.638;2024-03-07T04:23:07;101704.31;;;-1.23
51693;BMP280;37777;53.066;21.638;2024-03-07T04:30:13;101707.06;;;-1.29
51693;BMP280;37777;53.066;21.638;2024-03-07T04:37:17;101716.59;;;-1.40
51693;BMP280;37777;53.066;21.638;2024-03-07T04:44:19;101708.00;;;-1.36
51693;BMP280;37777;53.066;21.638;2024-03-07T04:51:23;101707.44;;;-1.26
51693;BMP280;37777;53.066;21.638;2024-03-07T04:58:25;101705.16;;;-1.41
51693;BMP280;37777;53.066;21.638;2024-03-07T05:05:26;101705.38;;;-1.42
51693;BMP280;37777;53.066;21.638;2024-03-07T05:12:28;101706.19;;;-1.42
51693;BMP280;37777;53.066;21.638;2024-03-07T05:19:30;101713.66;;;-1.51
51693;BMP280;37777;53.066;21.638;2024-03-07T05:26:32;101716.59;;;-1.40
51693;BMP280;37777;53.066;21.638;2024-03-07T05:33:35;101715.78;;;-1.41
51693;BMP280;37777;53.066;21.638;2024-03-07T05:40:36;101721.09;;;-1.41
51693;BMP280;37777;53.066;21.638;2024-03-07T05:47:38;101729.16;;;-1.29
51693;BMP280;37777;53.066;21.638;2024-03-07T05:54:40;101731.91;;;-1.24
51693;BMP280;37777;53.066;21.638;2024-03-07T06:01:41;101732.28;;;-1.20
51693;BMP280;37777;53.066;21.638;2024-03-07T06:08:43;101741.63;;;-0.99
51693;BMP280;37777;53.066;21.638;2024-03-07T06:15:46;101740.94;;;-0.82
51693;BMP280;37777;53.066;21.638;2024-03-07T06:22:51;101741.13;;;-0.65
51693;BMP280;37777;53.066;21.638;2024-03-07T06:29:53;101742.88;;;-0.59
51693;BMP280;37777;53.066;21.638;2024-03-07T06:36:55;101750.28;;;-0.50
51693;BMP280;37777;53.066;21.638;2024-03-07T06:43:56;101745.31;;;-0.34
51693;BMP280;37777;53.066;21.638;2024-03-07T07:07:48;101756.34;;;0.05
51693;BMP280;37777;53.066;21.638;2024-03-07T07:14:50;101745.53;;;0.24
51693;BMP280;37777;53.066;21.638;2024-03-07T07:21:51;101754.97;;;0.43
51693;BMP280;37777;53.066;21.638;2024-03-07T07:28:55;101752.41;;;0.60
51693;BMP280;37777;53.066;21.638;2024-03-07T07:35:58;101748.66;;;0.73
51693;BMP280;37777;53.066;21.638;2024-03-07T07:42:59;101753.47;;;0.88
51693;BMP280;37777;53.066;21.638;2024-03-07T07:50:03;101764.63;;;1.02
51693;BMP280;37777;53.066;21.638;2024-03-07T07:57:08;101756.81;;;1.12
51693;BMP280;37777;53.066;21.638;2024-03-07T08:04:10;101761.50;;;1.39
51693;BMP280;37777;53.066;21.638;2024-03-07T08:11:12;101766.19;;;1.66
51693;BMP280;37777;53.066;21.638;2024-03-07T08:18:14;101762.63;;;1.77
51693;BMP280;37777;53.066;21.638;2024-03-07T08:25:17;101761.03;;;1.98
51693;BMP280;37777;53.066;21.638;2024-03-07T08:32:19;101753.63;;;2.23
51693;BMP280;37777;53.066;21.638;2024-03-07T08:39:21;101755.47;;;2.44
51693;BMP280;37777;53.066;21.638;2024-03-07T08:46:23;101758.41;;;2.70
51693;BMP280;37777;53.066;21.638;2024-03-07T08:53:25;101750.47;;;2.80
51693;BMP280;37777;53.066;21.638;2024-03-07T09:00:26;101739.38;;;2.94
51693;BMP280;37777;53.066;21.638;2024-03-07T09:15:51;101734.94;;;3.42
51693;BMP280;37777;53.066;21.638;2024-03-07T09:22:53;101739.41;;;3.69
51693;BMP280;37777;53.066;21.638;2024-03-07T09:29:57;101723.50;;;3.57
51693;BMP280;37777;53.066;21.638;2024-03-07T09:45:34;101722.94;;;3.98
51693;BMP280;37777;53.066;21.638;2024-03-07T09:52:36;101719.72;;;4.06
51693;BMP280;37777;53.066;21.638;2024-03-07T09:59:38;101730.78;;;4.20
51693;BMP280;37777;53.066;21.638;2024-03-07T10:15:05;101716.78;;;4.07
51693;BMP280;37777;53.066;21.638;2024-03-07T10:30:49;101708.56;;;4.45
51693;BMP280;37777;53.066;21.638;2024-03-07T10:37:56;101706.19;;;4.69
51693;BMP280;37777;53.066;21.638;2024-03-07T10:45:02;101702.44;;;4.65
51693;BMP280;37777;53.066;21.638;2024-03-07T10:52:19;101709.41;;;4.87
51693;BMP280;37777;53.066;21.638;2024-03-07T10:59:29;101705.63;;;5.03
51693;BMP280;37777;53.066;21.638;2024-03-07T11:14:55;101689.31;;;4.94
51693;BMP280;37777;53.066;21.638;2024-03-07T11:55:26;101653.09;;;5.73
51693;BMP280;37777;53.066;21.638;2024-03-07T12:19:14;101644.75;;;5.79
51693;BMP280;37777;53.066;21.638;2024-03-07T12:26:20;101636.44;;;5.76
51693;BMP280;37777;53.066;21.638;2024-03-07T12:33:23;101620.94;;;6.07
51693;BMP280;37777;53.066;21.638;2024-03-07T12:40:27;101627.41;;;6.01
51693;BMP280;37777;53.066;21.638;2024-03-07T12:47:36;101627.03;;;6.18
51693;BMP280;37777;53.066;21.638;2024-03-07T12:54:38;101617.50;;;6.31
51693;BMP280;37777;53.066;21.638;2024-03-07T13:01:42;101628.78;;;6.33
51693;BMP280;37777;53.066;21.638;2024-03-07T13:25:39;101599.75;;;6.35
51693;BMP280;37777;53.066;21.638;2024-03-07T13:32:40;101590.19;;;6.53
51693;BMP280;37777;53.066;21.638;2024-03-07T13:40:05;101588.75;;;6.61
51693;BMP280;37777;53.066;21.638;2024-03-07T13:47:24;101584.44;;;6.60
51693;BMP280;37777;53.066;21.638;2024-03-07T13:54:26;101583.44;;;6.80
51693;BMP280;37777;53.066;21.638;2024-03-07T14:10:28;101565.63;;;6.84
51693;BMP280;37777;53.066;21.638;2024-03-07T14:25:29;101560.59;;;7.01
51693;BMP280;37777;53.066;21.638;2024-03-07T14:32:37;101556.34;;;6.95
51693;BMP280;37777;53.066;21.638;2024-03-07T14:39:39;101552.13;;;6.89
51693;BMP280;37777;53.066;21.638;2024-03-07T14:46:42;101556.66;;;6.69
51693;BMP280;37777;53.066;21.638;2024-03-07T14:53:43;101552.06;;;6.70
51693;BMP280;37777;53.066;21.638;2024-03-07T15:00:45;101549.34;;;6.75
51693;BMP280;37777;53.066;21.638;2024-03-07T15:07:58;101532.25;;;6.61
51693;BMP280;37777;53.066;21.638;2024-03-07T15:15:01;101535.88;;;6.51
51693;BMP280;37777;53.066;21.638;2024-03-07T15:22:14;101542.19;;;6.36
51693;BMP280;37777;53.066;21.638;2024-03-07T15:29:17;101533.94;;;6.27
51693;BMP280;37777;53.066;21.638;2024-03-07T15:44:45;101538.56;;;5.87
51693;BMP280;37777;53.066;21.638;2024-03-07T15:51:47;101530.09;;;5.70
51693;BMP280;37777;53.066;21.638;2024-03-07T15:59:07;101536.41;;;5.50
51693;BMP280;37777;53.066;21.638;2024-03-07T16:06:08;101524.47;;;5.21
51693;BMP280;37777;53.066;21.638;2024-03-07T16:21:33;101539.66;;;4.71
51693;BMP280;37777;53.066;21.638;2024-03-07T16:28:34;101535.16;;;4.51
51693;BMP280;37777;53.066;21.638;2024-03-07T16:35:36;101532.22;;;4.27
51693;BMP280;37777;53.066;21.638;2024-03-07T16:59:21;101524.91;;;3.60
51693;BMP280;37777;53.066;21.638;2024-03-07T17:06:22;101530.22;;;3.45
51693;BMP280;37777;53.066;21.638;2024-03-07T17:13:39;101538.75;;;3.26
51693;BMP280;37777;53.066;21.638;2024-03-07T17:20:43;101531.44;;;3.11
51693;BMP280;37777;53.066;21.638;2024-03-07T17:53:02;101537.22;;;2.50
51693;BMP280;37777;53.066;21.638;2024-03-07T18:00:05;101534.69;;;2.33
51693;BMP280;37777;53.066;21.638;2024-03-07T18:07:10;101530.16;;;2.06
51693;BMP280;37777;53.066;21.638;2024-03-07T18:14:11;101537.28;;;2.00
51693;BMP280;37777;53.066;21.638;2024-03-07T18:21:13;101541.28;;;1.98
51693;BMP280;37777;53.066;21.638;2024-03-07T18:28:15;101531.06;;;1.90
51693;BMP280;37777;53.066;21.638;2024-03-07T18:35:22;101530.69;;;1.76
51693;BMP280;37777;53.066;21.638;2024-03-07T18:42:26;101528.06;;;1.59
51693;BMP280;37777;53.066;21.638;2024-03-07T18:49:30;101530.81;;;1.64
51693;BMP280;37777;53.066;21.638;2024-03-07T18:56:35;101528.06;;;1.59
51693;BMP280;37777;53.066;21.638;2024-03-07T19:03:37;101524.66;;;1.41
51693;BMP280;37777;53.066;21.638;2024-03-07T19:10:39;101529.38;;;1.34
51693;BMP280;37777;53.066;21.638;2024-03-07T19:17:40;101530.38;;;1.28
51693;BMP280;37777;53.066;21.638;2024-03-07T19:24:42;101532.72;;;1.24
51693;BMP280;37777;53.066;21.638;2024-03-07T19:31:47;101540.50;;;1.09
51693;BMP280;37777;53.066;21.638;2024-03-07T19:38:49;101535.28;;;0.97
51693;BMP280;37777;53.066;21.638;2024-03-07T19:45:52;101532.56;;;0.92
51693;BMP280;37777;53.066;21.638;2024-03-07T19:52:57;101531.47;;;0.93
51693;BMP280;37777;53.066;21.638;2024-03-07T20:00:01;101526.41;;;0.74
51693;BMP280;37777;53.066;21.638;2024-03-07T20:07:10;101530.34;;;0.72
51693;BMP280;37777;53.066;21.638;2024-03-07T20:14:12;101522.44;;;0.60
51693;BMP280;37777;53.066;21.638;2024-03-07T20:21:13;101514.47;;;0.43
51693;BMP280;37777;53.066;21.638;2024-03-07T20:28:15;101526.66;;;0.39
51693;BMP280;37777;53.066;21.638;2024-03-07T20:35:17;101513.34;;;0.39
51693;BMP280;37777;53.066;21.638;2024-03-07T20:42:21;101522.56;;;0.31
51693;BMP280;37777;53.066;21.638;2024-03-07T20:49:23;101517.94;;;0.26
51693;BMP280;37777;53.066;21.638;2024-03-07T20:56:25;101508.25;;;0.20
51693;BMP280;37777;53.066;21.638;2024-03-07T21:03:27;101511.38;;;0.17
51693;BMP280;37777;53.066;21.638;2024-03-07T21:10:31;101501.34;;;-0.10
51693;BMP280;37777;53.066;21.638;2024-03-07T21:17:34;101503.75;;;-0.08
51693;BMP280;37777;53.066;21.638;2024-03-07T21:24:36;101509.16;;;-0.32
51693;BMP280;37777;53.066;21.638;2024-03-07T21:31:37;101504.41;;;-0.30
51693;BMP280;37777;53.066;21.638;2024-03-07T21:38:39;101507.66;;;-0.40
51693;BMP280;37777;53.066;21.638;2024-03-07T21:45:40;101498.44;;;-0.49
51693;BMP280;37777;53.066;21.638;2024-03-07T21:52:42;101504.66;;;-0.43
51693;BMP280;37777;53.066;21.638;2024-03-07T21:59:45;101511.00;;;-0.44
51693;BMP280;37777;53.066;21.638;2024-03-07T22:06:46;101517.19;;;-0.56
51693;BMP280;37777;53.066;21.638;2024-03-07T22:13:48;101510.50;;;-0.58
51693;BMP280;37777;53.066;21.638;2024-03-07T22:20:50;101512.13;;;-0.69
51693;BMP280;37777;53.066;21.638;2024-03-07T22:27:52;101503.31;;;-0.70
51693;BMP280;37777;53.066;21.638;2024-03-07T22:34:54;101507.25;;;-0.72
51693;BMP280;37777;53.066;21.638;2024-03-07T22:41:55;101506.72;;;-0.86
51693;BMP280;37777;53.066;21.638;2024-03-07T22:49:00;101504.63;;;-0.96
51693;BMP280;37777;53.066;21.638;2024-03-07T22:56:05;101509.03;;;-0.90
51693;BMP280;37777;53.066;21.638;2024-03-07T23:03:07;101499.91;;;-1.29
51693;BMP280;37777;53.066;21.638;2024-03-07T23:10:08;101499.97;;;-1.36
51693;BMP280;37777;53.066;21.638;2024-03-07T23:17:13;101493.91;;;-1.13
51693;BMP280;37777;53.066;21.638;2024-03-07T23:24:14;101483.84;;;-1.23
51693;BMP280;37777;53.066;21.638;2024-03-07T23:31:16;101498.19;;;-1.36
51693;BMP280;37777;53.066;21.638;2024-03-07T23:38:20;101489.63;;;-1.26
51693;BMP280;37777;53.066;21.638;2024-03-07T23:45:22;101487.09;;;-1.21
51693;BMP280;37777;53.066;21.638;2024-03-07T23:52:25;101481.53;;;-1.31
51693;BMP280;37777;53.066;21.638;2024-03-07T23:59:31;101479.97;;;-1.51
